sensor_id;sensor_type;location;lat;lon;timestamp;P1;durP1;ratioP1;P2;durP2;ratioP2
11970;SDS011;6045;42.682;23.294;2023-04-01T00:01:03;6.87;;;4.07;;
11970;SDS011;6045;42.682;23.294;2023-04-01T00:03:31;15.60;;;5.37;;
11970;SDS011;6045;42.682;23.294;2023-04-01T00:06:00;7.10;;;4.63;;
11970;SDS011;6045;42.682;23.294;2023-04-01T00:08:28;9.83;;;5.70;;
11970;SDS011;6045;42.682;23.294;2023-04-01T00:10:55;13.57;;;6.87;;
11970;SDS011;6045;42.682;23.294;2023-04-01T00:13:25;9.27;;;6.67;;
11970;SDS011;6045;42.682;23.294;2023-04-01T00:15:52;12.47;;;6.67;;
11970;SDS011;6045;42.682;23.294;2023-04-01T00:18:20;13.43;;;6.83;;
11970;SDS011;6045;42.682;23.294;2023-04-01T00:20:47;10.20;;;7.13;;
11970;SDS011;6045;42.682;23.294;2023-04-01T00:23:15;13.23;;;7.00;;
11970;SDS011;6045;42.682;23.294;2023-04-01T00:25:43;10.67;;;7.17;;
11970;SDS011;6045;42.682;23.294;2023-04-01T00:28:10;12.67;;;6.00;;
11970;SDS011;6045;42.682;23.294;2023-04-01T00:30:38;10.50;;;5.77;;
11970;SDS011;6045;42.682;23.294;2023-04-01T00:33:05;8.23;;;5.43;;
11970;SDS011;6045;42.682;23.294;2023-04-01T00:35:32;9.47;;;5.10;;
11970;SDS011;6045;42.682;23.294;2023-04-01T00:37:59;12.53;;;5.93;;
11970;SDS011;6045;42.682;23.294;2023-04-01T00:40:28;8.97;;;5.87;;
11970;SDS011;6045;42.682;23.294;2023-04-01T00:42:57;11.83;;;6.00;;
11970;SDS011;6045;42.682;23.294;2023-04-01T00:45:26;8.90;;;4.97;;
11970;SDS011;6045;42.682;23.294;2023-04-01T00:47:56;8.70;;;5.67;;
11970;SDS011;6045;42.682;23.294;2023-04-01T00:50:27;10.87;;;5.50;;
11970;SDS011;6045;42.682;23.294;2023-04-01T00:52:57;6.40;;;5.27;;
11970;SDS011;6045;42.682;23.294;2023-04-01T00:55:26;7.27;;;4.73;;
11970;SDS011;6045;42.682;23.294;2023-04-01T00:57:56;8.13;;;4.93;;
11970;SDS011;6045;42.682;23.294;2023-04-01T01:00:25;7.17;;;5.57;;
11970;SDS011;6045;42.682;23.294;2023-04-01T01:02:52;4.93;;;4.20;;
11970;SDS011;6045;42.682;23.294;2023-04-01T01:05:22;9.87;;;5.37;;
11970;SDS011;6045;42.682;23.294;2023-04-01T01:07:57;7.53;;;4.57;;
11970;SDS011;6045;42.682;23.294;2023-04-01T01:10:30;6.87;;;4.07;;
11970;SDS011;6045;42.682;23.294;2023-04-01T01:13:01;9.97;;;4.93;;
11970;SDS011;6045;42.682;23.294;2023-04-01T01:15:37;7.90;;;4.97;;
11970;SDS011;6045;42.682;23.294;2023-04-01T01:18:14;8.00;;;4.10;;
11970;SDS011;6045;42.682;23.294;2023-04-01T01:27:00;5.33;;;3.73;;
11970;SDS011;6045;42.682;23.294;2023-04-01T01:29:41;7.47;;;4.13;;
11970;SDS011;6045;42.682;23.294;2023-04-01T01:32:17;6.17;;;3.50;;
11970;SDS011;6045;42.682;23.294;2023-04-01T01:35:04;8.57;;;4.00;;
11970;SDS011;6045;42.682;23.294;2023-04-01T01:37:39;4.23;;;2.60;;
11970;SDS011;6045;42.682;23.294;2023-04-01T01:40:08;5.13;;;3.80;;
11970;SDS011;6045;42.682;23.294;2023-04-01T01:42:38;5.20;;;3.13;;
11970;SDS011;6045;42.682;23.294;2023-04-01T01:45:08;4.20;;;3.60;;
11970;SDS011;6045;42.682;23.294;2023-04-01T01:47:36;5.37;;;3.10;;
11970;SDS011;6045;42.682;23.294;2023-04-01T01:50:05;3.77;;;3.03;;
11970;SDS011;6045;42.682;23.294;2023-04-01T01:52:34;5.00;;;2.97;;
11970;SDS011;6045;42.682;23.294;2023-04-01T01:55:01;5.97;;;3.03;;
11970;SDS011;6045;42.682;23.294;2023-04-01T01:57:28;4.57;;;2.63;;
11970;SDS011;6045;42.682;23.294;2023-04-01T01:59:59;6.20;;;4.10;;
11970;SDS011;6045;42.682;23.294;2023-04-01T02:02:29;5.17;;;2.80;;
11970;SDS011;6045;42.682;23.294;2023-04-01T02:04:57;4.00;;;3.33;;
11970;SDS011;6045;42.682;23.294;2023-04-01T02:07:27;4.90;;;3.03;;
11970;SDS011;6045;42.682;23.294;2023-04-01T02:09:57;4.60;;;2.80;;
11970;SDS011;6045;42.682;23.294;2023-04-01T02:12:25;3.80;;;2.70;;
11970;SDS011;6045;42.682;23.294;2023-04-01T02:14:55;4.77;;;3.17;;
11970;SDS011;6045;42.682;23.294;2023-04-01T02:17:27;6.73;;;3.03;;
11970;SDS011;6045;42.682;23.294;2023-04-01T02:19:56;5.53;;;3.13;;
11970;SDS011;6045;42.682;23.294;2023-04-01T02:22:27;6.40;;;3.23;;
11970;SDS011;6045;42.682;23.294;2023-04-01T02:24:57;6.73;;;2.60;;
11970;SDS011;6045;42.682;23.294;2023-04-01T02:27:26;6.20;;;2.87;;
11970;SDS011;6045;42.682;23.294;2023-04-01T02:29:54;5.90;;;2.67;;
11970;SDS011;6045;42.682;23.294;2023-04-01T02:32:21;3.10;;;2.60;;
11970;SDS011;6045;42.682;23.294;2023-04-01T02:34:48;3.03;;;2.50;;
11970;SDS011;6045;42.682;23.294;2023-04-01T02:37:15;2.93;;;2.63;;
11970;SDS011;6045;42.682;23.294;2023-04-01T02:39:44;2.87;;;2.43;;
11970;SDS011;6045;42.682;23.294;2023-04-01T02:42:10;4.13;;;2.53;;
11970;SDS011;6045;42.682;23.294;2023-04-01T02:44:37;3.20;;;2.43;;
11970;SDS011;6045;42.682;23.294;2023-04-01T02:47:04;3.40;;;2.50;;
11970;SDS011;6045;42.682;23.294;2023-04-01T02:49:31;5.43;;;2.33;;
11970;SDS011;6045;42.682;23.294;2023-04-01T02:51:57;9.10;;;4.30;;
11970;SDS011;6045;42.682;23.294;2023-04-01T02:54:24;7.47;;;4.07;;
11970;SDS011;6045;42.682;23.294;2023-04-01T02:56:52;5.53;;;3.10;;
11970;SDS011;6045;42.682;23.294;2023-04-01T02:59:19;5.87;;;3.50;;
11970;SDS011;6045;42.682;23.294;2023-04-01T03:01:46;4.50;;;3.03;;
11970;SDS011;6045;42.682;23.294;2023-04-01T03:04:13;2.83;;;2.50;;
11970;SDS011;6045;42.682;23.294;2023-04-01T03:06:40;4.20;;;3.37;;
11970;SDS011;6045;42.682;23.294;2023-04-01T03:09:06;5.47;;;3.20;;
11970;SDS011;6045;42.682;23.294;2023-04-01T03:11:34;5.13;;;3.50;;
11970;SDS011;6045;42.682;23.294;2023-04-01T03:14:02;7.23;;;3.70;;
11970;SDS011;6045;42.682;23.294;2023-04-01T03:16:29;4.00;;;2.53;;
11970;SDS011;6045;42.682;23.294;2023-04-01T03:18:55;9.33;;;4.73;;
11970;SDS011;6045;42.682;23.294;2023-04-01T03:21:25;5.17;;;3.20;;
11970;SDS011;6045;42.682;23.294;2023-04-01T03:23:52;7.47;;;3.60;;
11970;SDS011;6045;42.682;23.294;2023-04-01T03:26:19;9.10;;;4.17;;
11970;SDS011;6045;42.682;23.294;2023-04-01T03:28:46;7.50;;;4.20;;
11970;SDS011;6045;42.682;23.294;2023-04-01T03:31:14;6.47;;;3.87;;
11970;SDS011;6045;42.682;23.294;2023-04-01T03:33:42;4.30;;;3.53;;
11970;SDS011;6045;42.682;23.294;2023-04-01T03:36:08;6.53;;;4.07;;
11970;SDS011;6045;42.682;23.294;2023-04-01T03:38:37;8.70;;;4.13;;
11970;SDS011;6045;42.682;23.294;2023-04-01T03:41:05;4.60;;;3.47;;
11970;SDS011;6045;42.682;23.294;2023-04-01T03:43:32;5.10;;;4.17;;
11970;SDS011;6045;42.682;23.294;2023-04-01T03:45:59;8.20;;;3.53;;
11970;SDS011;6045;42.682;23.294;2023-04-01T03:48:27;4.77;;;3.27;;
11970;SDS011;6045;42.682;23.294;2023-04-01T03:50:54;5.80;;;3.20;;
11970;SDS011;6045;42.682;23.294;2023-04-01T03:53:21;6.27;;;4.03;;
11970;SDS011;6045;42.682;23.294;2023-04-01T03:55:48;6.33;;;3.93;;
11970;SDS011;6045;42.682;23.294;2023-04-01T03:58:16;6.50;;;4.17;;
11970;SDS011;6045;42.682;23.294;2023-04-01T04:00:43;7.73;;;4.13;;
11970;SDS011;6045;42.682;23.294;2023-04-01T04:03:10;4.73;;;3.27;;
11970;SDS011;6045;42.682;23.294;2023-04-01T04:05:40;5.70;;;3.47;;
11970;SDS011;6045;42.682;23.294;2023-04-01T04:08:13;6.67;;;3.63;;
11970;SDS011;6045;42.682;23.294;2023-04-01T04:10:40;6.57;;;4.13;;
11970;SDS011;6045;42.682;23.294;2023-04-01T04:13:06;3.93;;;3.10;;
11970;SDS011;6045;42.682;23.294;2023-04-01T04:15:33;5.53;;;4.20;;
11970;SDS011;6045;42.682;23.294;2023-04-01T04:18:00;7.67;;;4.27;;
11970;SDS011;6045;42.682;23.294;2023-04-01T04:20:27;5.30;;;2.80;;
11970;SDS011;6045;42.682;23.294;2023-04-01T04:22:55;8.10;;;2.23;;
11970;SDS011;6045;42.682;23.294;2023-04-01T04:25:22;4.30;;;3.90;;
11970;SDS011;6045;42.682;23.294;2023-04-01T04:27:48;7.07;;;3.27;;
11970;SDS011;6045;42.682;23.294;2023-04-01T04:30:15;7.37;;;3.60;;
11970;SDS011;6045;42.682;23.294;2023-04-01T04:32:42;5.43;;;3.30;;
11970;SDS011;6045;42.682;23.294;2023-04-01T04:35:09;6.77;;;3.70;;
11970;SDS011;6045;42.682;23.294;2023-04-01T04:37:36;6.00;;;3.87;;
11970;SDS011;6045;42.682;23.294;2023-04-01T04:40:04;6.30;;;4.00;;
11970;SDS011;6045;42.682;23.294;2023-04-01T04:42:32;8.10;;;2.90;;
11970;SDS011;6045;42.682;23.294;2023-04-01T04:44:59;4.57;;;3.63;;
11970;SDS011;6045;42.682;23.294;2023-04-01T04:47:26;5.47;;;3.17;;
11970;SDS011;6045;42.682;23.294;2023-04-01T04:49:52;8.20;;;3.27;;
11970;SDS011;6045;42.682;23.294;2023-04-01T04:52:19;5.60;;;4.23;;
11970;SDS011;6045;42.682;23.294;2023-04-01T04:54:46;5.70;;;4.50;;
11970;SDS011;6045;42.682;23.294;2023-04-01T04:57:14;5.47;;;3.70;;
11970;SDS011;6045;42.682;23.294;2023-04-01T04:59:41;4.67;;;3.73;;
11970;SDS011;6045;42.682;23.294;2023-04-01T05:02:08;3.53;;;2.67;;
11970;SDS011;6045;42.682;23.294;2023-04-01T05:04:35;6.03;;;4.00;;
11970;SDS011;6045;42.682;23.294;2023-04-01T05:07:02;6.30;;;3.00;;
11970;SDS011;6045;42.682;23.294;2023-04-01T05:09:29;4.10;;;2.73;;
11970;SDS011;6045;42.682;23.294;2023-04-01T05:11:56;3.43;;;2.90;;
11970;SDS011;6045;42.682;23.294;2023-04-01T05:14:24;4.83;;;2.40;;
11970;SDS011;6045;42.682;23.294;2023-04-01T05:16:51;3.43;;;2.80;;
11970;SDS011;6045;42.682;23.294;2023-04-01T05:19:19;4.07;;;2.63;;
11970;SDS011;6045;42.682;23.294;2023-04-01T05:21:46;4.03;;;2.37;;
11970;SDS011;6045;42.682;23.294;2023-04-01T05:24:13;2.90;;;2.23;;
11970;SDS011;6045;42.682;23.294;2023-04-01T05:26:39;5.03;;;2.30;;
11970;SDS011;6045;42.682;23.294;2023-04-01T05:29:06;7.93;;;2.17;;
11970;SDS011;6045;42.682;23.294;2023-04-01T05:31:34;3.33;;;2.77;;
11970;SDS011;6045;42.682;23.294;2023-04-01T05:34:01;4.63;;;2.63;;
11970;SDS011;6045;42.682;23.294;2023-04-01T05:36:28;3.60;;;2.43;;
11970;SDS011;6045;42.682;23.294;2023-04-01T05:38:55;6.77;;;2.50;;
11970;SDS011;6045;42.682;23.294;2023-04-01T05:41:22;3.43;;;2.70;;
11970;SDS011;6045;42.682;23.294;2023-04-01T05:43:48;3.23;;;2.00;;
11970;SDS011;6045;42.682;23.294;2023-04-01T05:46:15;2.53;;;2.33;;
11970;SDS011;6045;42.682;23.294;2023-04-01T05:48:43;3.37;;;2.50;;
11970;SDS011;6045;42.682;23.294;2023-04-01T05:51:12;2.70;;;2.40;;
11970;SDS011;6045;42.682;23.294;2023-04-01T05:53:39;2.30;;;2.03;;
11970;SDS011;6045;42.682;23.294;2023-04-01T05:56:06;5.07;;;3.23;;
11970;SDS011;6045;42.682;23.294;2023-04-01T05:58:34;3.53;;;2.43;;
11970;SDS011;6045;42.682;23.294;2023-04-01T06:01:01;4.40;;;2.13;;
11970;SDS011;6045;42.682;23.294;2023-04-01T06:03:29;3.67;;;2.77;;
11970;SDS011;6045;42.682;23.294;2023-04-01T06:05:57;2.70;;;2.50;;
11970;SDS011;6045;42.682;23.294;2023-04-01T06:08:26;4.73;;;2.50;;
11970;SDS011;6045;42.682;23.294;2023-04-01T06:10:57;5.87;;;2.20;;
11970;SDS011;6045;42.682;23.294;2023-04-01T06:13:37;2.83;;;2.35;;
11970;SDS011;6045;42.682;23.294;2023-04-01T06:16:15;3.40;;;2.78;;
11970;SDS011;6045;42.682;23.294;2023-04-01T06:18:59;2.50;;;2.30;;
11970;SDS011;6045;42.682;23.294;2023-04-01T06:21:47;4.00;;;2.57;;
11970;SDS011;6045;42.682;23.294;2023-04-01T06:24:33;3.47;;;2.17;;
11970;SDS011;6045;42.682;23.294;2023-04-01T06:27:14;3.53;;;1.70;;
11970;SDS011;6045;42.682;23.294;2023-04-01T06:29:49;5.73;;;2.40;;
11970;SDS011;6045;42.682;23.294;2023-04-01T06:32:38;2.83;;;2.03;;
11970;SDS011;6045;42.682;23.294;2023-04-01T06:35:23;4.57;;;1.87;;
11970;SDS011;6045;42.682;23.294;2023-04-01T06:38:02;2.67;;;1.33;;
11970;SDS011;6045;42.682;23.294;2023-04-01T06:40:48;3.93;;;1.80;;
11970;SDS011;6045;42.682;23.294;2023-04-01T06:43:23;3.93;;;2.47;;
11970;SDS011;6045;42.682;23.294;2023-04-01T06:46:00;3.37;;;1.97;;
11970;SDS011;6045;42.682;23.294;2023-04-01T06:48:39;2.00;;;1.63;;
11970;SDS011;6045;42.682;23.294;2023-04-01T06:51:20;2.43;;;2.23;;
11970;SDS011;6045;42.682;23.294;2023-04-01T06:53:56;3.93;;;2.00;;
11970;SDS011;6045;42.682;23.294;2023-04-01T06:56:29;3.77;;;2.47;;
11970;SDS011;6045;42.682;23.294;2023-04-01T06:58:57;2.97;;;2.43;;
11970;SDS011;6045;42.682;23.294;2023-04-01T07:01:27;2.30;;;1.60;;
11970;SDS011;6045;42.682;23.294;2023-04-01T07:03:59;6.13;;;2.57;;
11970;SDS011;6045;42.682;23.294;2023-04-01T07:06:30;5.87;;;3.27;;
11970;SDS011;6045;42.682;23.294;2023-04-01T07:09:00;5.77;;;2.97;;
11970;SDS011;6045;42.682;23.294;2023-04-01T07:11:32;3.23;;;2.63;;
11970;SDS011;6045;42.682;23.294;2023-04-01T07:14:02;3.00;;;2.40;;
11970;SDS011;6045;42.682;23.294;2023-04-01T07:16:33;2.83;;;1.67;;
11970;SDS011;6045;42.682;23.294;2023-04-01T07:19:06;7.23;;;2.20;;
11970;SDS011;6045;42.682;23.294;2023-04-01T07:21:40;3.78;;;2.20;;
11970;SDS011;6045;42.682;23.294;2023-04-01T07:24:13;4.25;;;2.60;;
11970;SDS011;6045;42.682;23.294;2023-04-01T07:26:47;3.78;;;2.20;;
11970;SDS011;6045;42.682;23.294;2023-04-01T07:29:18;3.93;;;2.60;;
11970;SDS011;6045;42.682;23.294;2023-04-01T07:32:04;2.70;;;2.30;;
11970;SDS011;6045;42.682;23.294;2023-04-01T07:34:41;3.88;;;2.15;;
11970;SDS011;6045;42.682;23.294;2023-04-01T07:37:17;4.13;;;1.93;;
11970;SDS011;6045;42.682;23.294;2023-04-01T07:39:55;2.83;;;2.47;;
11970;SDS011;6045;42.682;23.294;2023-04-01T07:42:38;3.13;;;2.27;;
11970;SDS011;6045;42.682;23.294;2023-04-01T07:45:17;4.90;;;2.13;;
11970;SDS011;6045;42.682;23.294;2023-04-01T07:47:53;4.30;;;2.50;;
11970;SDS011;6045;42.682;23.294;2023-04-01T07:50:34;5.43;;;1.90;;
11970;SDS011;6045;42.682;23.294;2023-04-01T07:53:08;2.47;;;1.90;;
11970;SDS011;6045;42.682;23.294;2023-04-01T07:55:45;3.07;;;2.40;;
11970;SDS011;6045;42.682;23.294;2023-04-01T07:58:19;2.63;;;2.17;;
11970;SDS011;6045;42.682;23.294;2023-04-01T08:00:56;3.27;;;2.20;;
11970;SDS011;6045;42.682;23.294;2023-04-01T08:03:35;6.30;;;2.27;;
11970;SDS011;6045;42.682;23.294;2023-04-01T08:06:16;3.37;;;1.63;;
11970;SDS011;6045;42.682;23.294;2023-04-01T08:08:52;2.70;;;2.00;;
11970;SDS011;6045;42.682;23.294;2023-04-01T08:11:32;2.23;;;1.97;;
11970;SDS011;6045;42.682;23.294;2023-04-01T08:14:08;3.23;;;1.83;;
11970;SDS011;6045;42.682;23.294;2023-04-01T08:16:44;5.63;;;1.93;;
11970;SDS011;6045;42.682;23.294;2023-04-01T08:19:20;4.70;;;2.53;;
11970;SDS011;6045;42.682;23.294;2023-04-01T08:21:57;2.47;;;2.20;;
11970;SDS011;6045;42.682;23.294;2023-04-01T08:24:32;3.53;;;2.37;;
11970;SDS011;6045;42.682;23.294;2023-04-01T08:27:06;2.97;;;1.87;;
11970;SDS011;6045;42.682;23.294;2023-04-01T08:29:39;3.20;;;2.60;;
11970;SDS011;6045;42.682;23.294;2023-04-01T08:32:11;5.87;;;2.27;;
11970;SDS011;6045;42.682;23.294;2023-04-01T08:34:44;2.25;;;2.03;;
11970;SDS011;6045;42.682;23.294;2023-04-01T08:37:14;2.20;;;2.00;;
11970;SDS011;6045;42.682;23.294;2023-04-01T08:39:44;2.60;;;1.95;;
11970;SDS011;6045;42.682;23.294;2023-04-01T08:42:23;4.25;;;2.55;;
11970;SDS011;6045;42.682;23.294;2023-04-01T08:45:06;2.78;;;2.05;;
11970;SDS011;6045;42.682;23.294;2023-04-01T08:51:16;3.47;;;2.45;;
11970;SDS011;6045;42.682;23.294;2023-04-01T08:54:12;3.65;;;2.10;;
11970;SDS011;6045;42.682;23.294;2023-04-01T08:56:55;2.28;;;2.08;;
11970;SDS011;6045;42.682;23.294;2023-04-01T08:59:45;2.97;;;2.25;;
11970;SDS011;6045;42.682;23.294;2023-04-01T09:02:26;3.00;;;2.03;;
11970;SDS011;6045;42.682;23.294;2023-04-01T09:08:15;2.97;;;2.20;;
11970;SDS011;6045;42.682;23.294;2023-04-01T09:10:56;3.28;;;2.10;;
11970;SDS011;6045;42.682;23.294;2023-04-01T09:13:42;2.22;;;1.65;;
11970;SDS011;6045;42.682;23.294;2023-04-01T09:16:43;1.73;;;1.27;;
11970;SDS011;6045;42.682;23.294;2023-04-01T09:19:34;3.83;;;1.90;;
11970;SDS011;6045;42.682;23.294;2023-04-01T09:22:21;2.50;;;1.95;;
11970;SDS011;6045;42.682;23.294;2023-04-01T09:28:05;7.18;;;1.85;;
11970;SDS011;6045;42.682;23.294;2023-04-01T09:33:56;3.60;;;2.58;;
11970;SDS011;6045;42.682;23.294;2023-04-01T09:36:43;2.10;;;1.60;;
11970;SDS011;6045;42.682;23.294;2023-04-01T09:39:25;3.03;;;1.30;;
11970;SDS011;6045;42.682;23.294;2023-04-01T09:42:15;4.10;;;1.83;;
11970;SDS011;6045;42.682;23.294;2023-04-01T09:44:59;1.30;;;1.20;;
11970;SDS011;6045;42.682;23.294;2023-04-01T09:47:42;3.53;;;1.60;;
11970;SDS011;6045;42.682;23.294;2023-04-01T09:50:26;1.52;;;1.42;;
11970;SDS011;6045;42.682;23.294;2023-04-01T09:53:03;2.65;;;1.80;;
11970;SDS011;6045;42.682;23.294;2023-04-01T10:01:57;2.67;;;1.63;;
11970;SDS011;6045;42.682;23.294;2023-04-01T10:04:54;4.20;;;1.65;;
11970;SDS011;6045;42.682;23.294;2023-04-01T10:10:53;2.50;;;1.60;;
11970;SDS011;6045;42.682;23.294;2023-04-01T10:13:48;3.10;;;1.45;;
11970;SDS011;6045;42.682;23.294;2023-04-01T10:19:49;1.60;;;1.40;;
11970;SDS011;6045;42.682;23.294;2023-04-01T10:22:43;2.28;;;1.65;;
11970;SDS011;6045;42.682;23.294;2023-04-01T10:25:50;2.15;;;1.60;;
11970;SDS011;6045;42.682;23.294;2023-04-01T10:28:48;4.65;;;1.85;;
11970;SDS011;6045;42.682;23.294;2023-04-01T10:31:35;1.88;;;1.17;;
11970;SDS011;6045;42.682;23.294;2023-04-01T10:34:35;6.50;;;3.28;;
11970;SDS011;6045;42.682;23.294;2023-04-01T10:37:25;6.30;;;2.42;;
11970;SDS011;6045;42.682;23.294;2023-04-01T10:40:38;4.57;;;2.08;;
11970;SDS011;6045;42.682;23.294;2023-04-01T10:46:45;2.08;;;1.40;;
11970;SDS011;6045;42.682;23.294;2023-04-01T10:49:41;1.58;;;1.25;;
11970;SDS011;6045;42.682;23.294;2023-04-01T11:04:44;1.75;;;1.58;;
11970;SDS011;6045;42.682;23.294;2023-04-01T11:07:43;2.88;;;1.48;;
11970;SDS011;6045;42.682;23.294;2023-04-01T11:10:58;1.92;;;1.60;;
11970;SDS011;6045;42.682;23.294;2023-04-01T11:17:22;2.45;;;1.58;;
11970;SDS011;6045;42.682;23.294;2023-04-01T11:20:18;2.15;;;1.45;;
11970;SDS011;6045;42.682;23.294;2023-04-01T11:23:13;2.20;;;2.00;;
11970;SDS011;6045;42.682;23.294;2023-04-01T11:25:50;2.17;;;1.02;;
11970;SDS011;6045;42.682;23.294;2023-04-01T11:28:42;4.35;;;1.25;;
11970;SDS011;6045;42.682;23.294;2023-04-01T11:31:22;1.88;;;0.88;;
11970;SDS011;6045;42.682;23.294;2023-04-01T11:34:05;0.98;;;0.88;;
11970;SDS011;6045;42.682;23.294;2023-04-01T11:36:45;1.52;;;1.17;;
11970;SDS011;6045;42.682;23.294;2023-04-01T11:39:20;1.20;;;0.70;;
11970;SDS011;6045;42.682;23.294;2023-04-01T11:41:58;0.20;;;0.20;;
11970;SDS011;6045;42.682;23.294;2023-04-01T11:44:36;3.63;;;1.10;;
11970;SDS011;6045;42.682;23.294;2023-04-01T11:47:18;1.93;;;0.90;;
11970;SDS011;6045;42.682;23.294;2023-04-01T11:49:56;1.20;;;0.77;;
11970;SDS011;6045;42.682;23.294;2023-04-01T11:52:33;1.37;;;1.00;;
11970;SDS011;6045;42.682;23.294;2023-04-01T11:55:24;1.47;;;1.10;;
11970;SDS011;6045;42.682;23.294;2023-04-01T11:58:04;1.23;;;1.00;;
11970;SDS011;6045;42.682;23.294;2023-04-01T12:00:47;3.13;;;1.57;;
11970;SDS011;6045;42.682;23.294;2023-04-01T12:03:32;1.50;;;1.17;;
11970;SDS011;6045;42.682;23.294;2023-04-01T12:06:08;2.43;;;1.37;;
11970;SDS011;6045;42.682;23.294;2023-04-01T12:08:44;4.47;;;1.40;;
11970;SDS011;6045;42.682;23.294;2023-04-01T12:11:20;3.13;;;1.33;;
11970;SDS011;6045;42.682;23.294;2023-04-01T12:13:59;1.20;;;1.10;;
11970;SDS011;6045;42.682;23.294;2023-04-01T12:16:41;3.00;;;1.27;;
11970;SDS011;6045;42.682;23.294;2023-04-01T12:19:17;2.00;;;1.10;;
11970;SDS011;6045;42.682;23.294;2023-04-01T12:21:55;2.47;;;1.23;;
11970;SDS011;6045;42.682;23.294;2023-04-01T12:24:45;0.82;;;0.82;;
11970;SDS011;6045;42.682;23.294;2023-04-01T12:27:22;1.83;;;1.52;;
11970;SDS011;6045;42.682;23.294;2023-04-01T12:30:11;1.48;;;1.38;;
11970;SDS011;6045;42.682;23.294;2023-04-01T12:32:51;1.50;;;1.40;;
11970;SDS011;6045;42.682;23.294;2023-04-01T12:35:30;3.65;;;2.15;;
11970;SDS011;6045;42.682;23.294;2023-04-01T12:38:14;2.13;;;1.92;;
11970;SDS011;6045;42.682;23.294;2023-04-01T12:40:56;4.13;;;1.92;;
11970;SDS011;6045;42.682;23.294;2023-04-01T12:46:50;1.70;;;1.23;;
11970;SDS011;6045;42.682;23.294;2023-04-01T12:49:55;1.60;;;1.50;;
11970;SDS011;6045;42.682;23.294;2023-04-01T12:52:45;3.20;;;1.50;;
11970;SDS011;6045;42.682;23.294;2023-04-01T13:01:29;2.07;;;1.73;;
11970;SDS011;6045;42.682;23.294;2023-04-01T13:07:10;4.03;;;1.77;;
11970;SDS011;6045;42.682;23.294;2023-04-01T13:09:51;2.33;;;1.70;;
11970;SDS011;6045;42.682;23.294;2023-04-01T13:12:39;1.40;;;1.30;;
11970;SDS011;6045;42.682;23.294;2023-04-01T13:15:24;1.17;;;1.07;;
11970;SDS011;6045;42.682;23.294;2023-04-01T13:17:58;1.43;;;1.33;;
11970;SDS011;6045;42.682;23.294;2023-04-01T13:20:40;1.87;;;1.30;;
11970;SDS011;6045;42.682;23.294;2023-04-01T13:23:14;2.70;;;1.70;;
11970;SDS011;6045;42.682;23.294;2023-04-01T13:25:54;1.37;;;1.27;;
11970;SDS011;6045;42.682;23.294;2023-04-01T13:28:32;4.10;;;2.20;;
11970;SDS011;6045;42.682;23.294;2023-04-01T13:31:05;4.93;;;1.70;;
11970;SDS011;6045;42.682;23.294;2023-04-01T13:33:42;1.30;;;1.20;;
11970;SDS011;6045;42.682;23.294;2023-04-01T13:36:19;1.80;;;1.70;;
11970;SDS011;6045;42.682;23.294;2023-04-01T13:39:01;1.90;;;1.40;;
11970;SDS011;6045;42.682;23.294;2023-04-01T13:41:43;1.83;;;1.20;;
11970;SDS011;6045;42.682;23.294;2023-04-01T13:44:28;0.77;;;0.65;;
11970;SDS011;6045;42.682;23.294;2023-04-01T13:47:04;0.87;;;0.50;;
11970;SDS011;6045;42.682;23.294;2023-04-01T13:50:16;2.53;;;1.00;;
11970;SDS011;6045;42.682;23.294;2023-04-01T13:53:13;0.68;;;0.68;;
11970;SDS011;6045;42.682;23.294;2023-04-01T13:55:59;1.08;;;0.50;;
11970;SDS011;6045;42.682;23.294;2023-04-01T13:58:49;0.30;;;0.30;;
11970;SDS011;6045;42.682;23.294;2023-04-01T14:01:27;0.60;;;0.60;;
11970;SDS011;6045;42.682;23.294;2023-04-01T14:06:58;3.03;;;0.70;;
11970;SDS011;6045;42.682;23.294;2023-04-01T14:09:48;0.40;;;0.40;;
11970;SDS011;6045;42.682;23.294;2023-04-01T14:12:29;1.00;;;0.80;;
11970;SDS011;6045;42.682;23.294;2023-04-01T14:15:09;0.80;;;0.67;;
11970;SDS011;6045;42.682;23.294;2023-04-01T14:17:51;0.60;;;0.60;;
11970;SDS011;6045;42.682;23.294;2023-04-01T14:20:33;0.40;;;0.40;;
11970;SDS011;6045;42.682;23.294;2023-04-01T14:26:19;0.70;;;0.60;;
11970;SDS011;6045;42.682;23.294;2023-04-01T14:29:02;1.23;;;1.10;;
11970;SDS011;6045;42.682;23.294;2023-04-01T14:31:45;1.30;;;0.83;;
11970;SDS011;6045;42.682;23.294;2023-04-01T14:34:22;2.37;;;0.60;;
11970;SDS011;6045;42.682;23.294;2023-04-01T14:42:58;0.77;;;0.70;;
11970;SDS011;6045;42.682;23.294;2023-04-01T14:48:36;1.93;;;0.80;;
11970;SDS011;6045;42.682;23.294;2023-04-01T14:51:09;0.70;;;0.70;;
11970;SDS011;6045;42.682;23.294;2023-04-01T14:53:42;0.30;;;0.30;;
11970;SDS011;6045;42.682;23.294;2023-04-01T14:59:06;0.93;;;0.77;;
11970;SDS011;6045;42.682;23.294;2023-04-01T15:01:37;0.50;;;0.50;;
11970;SDS011;6045;42.682;23.294;2023-04-01T15:04:20;1.07;;;0.63;;
11970;SDS011;6045;42.682;23.294;2023-04-01T15:07:10;0.53;;;0.53;;
11970;SDS011;6045;42.682;23.294;2023-04-01T15:09:48;0.40;;;0.40;;
11970;SDS011;6045;42.682;23.294;2023-04-01T15:12:26;1.03;;;0.53;;
11970;SDS011;6045;42.682;23.294;2023-04-01T15:15:13;0.77;;;0.50;;
11970;SDS011;6045;42.682;23.294;2023-04-01T15:17:58;0.60;;;0.60;;
11970;SDS011;6045;42.682;23.294;2023-04-01T15:24:00;1.20;;;1.10;;
11970;SDS011;6045;42.682;23.294;2023-04-01T15:29:44;2.00;;;1.23;;
11970;SDS011;6045;42.682;23.294;2023-04-01T15:32:21;1.50;;;1.40;;
11970;SDS011;6045;42.682;23.294;2023-04-01T15:34:59;2.40;;;2.10;;
11970;SDS011;6045;42.682;23.294;2023-04-01T15:37:37;2.27;;;1.30;;
11970;SDS011;6045;42.682;23.294;2023-04-01T15:40:17;2.77;;;1.50;;
11970;SDS011;6045;42.682;23.294;2023-04-01T15:42:55;5.17;;;2.07;;
11970;SDS011;6045;42.682;23.294;2023-04-01T15:45:36;2.33;;;1.67;;
11970;SDS011;6045;42.682;23.294;2023-04-01T15:51:02;1.30;;;0.60;;
11970;SDS011;6045;42.682;23.294;2023-04-01T15:53:50;2.43;;;1.00;;
11970;SDS011;6045;42.682;23.294;2023-04-01T15:56:36;1.53;;;0.87;;
11970;SDS011;6045;42.682;23.294;2023-04-01T15:59:22;0.70;;;0.70;;
11970;SDS011;6045;42.682;23.294;2023-04-01T16:02:08;1.37;;;0.90;;
11970;SDS011;6045;42.682;23.294;2023-04-01T16:04:50;1.17;;;0.83;;
11970;SDS011;6045;42.682;23.294;2023-04-01T16:10:32;1.20;;;0.93;;
11970;SDS011;6045;42.682;23.294;2023-04-01T16:13:15;2.90;;;1.13;;
11970;SDS011;6045;42.682;23.294;2023-04-01T16:15:57;1.97;;;1.70;;
11970;SDS011;6045;42.682;23.294;2023-04-01T16:18:40;1.47;;;1.33;;
11970;SDS011;6045;42.682;23.294;2023-04-01T16:21:24;3.67;;;1.10;;
11970;SDS011;6045;42.682;23.294;2023-04-01T16:24:03;1.23;;;1.13;;
11970;SDS011;6045;42.682;23.294;2023-04-01T16:26:43;1.70;;;0.90;;
11970;SDS011;6045;42.682;23.294;2023-04-01T16:29:19;1.90;;;0.70;;
11970;SDS011;6045;42.682;23.294;2023-04-01T16:31:52;0.90;;;0.90;;
11970;SDS011;6045;42.682;23.294;2023-04-01T16:34:27;1.97;;;1.17;;
11970;SDS011;6045;42.682;23.294;2023-04-01T16:37:03;1.50;;;0.77;;
11970;SDS011;6045;42.682;23.294;2023-04-01T16:39:41;0.73;;;0.73;;
11970;SDS011;6045;42.682;23.294;2023-04-01T16:42:31;0.30;;;0.23;;
11970;SDS011;6045;42.682;23.294;2023-04-01T16:45:15;0.70;;;0.70;;
11970;SDS011;6045;42.682;23.294;2023-04-01T16:47:48;1.47;;;1.37;;
11970;SDS011;6045;42.682;23.294;2023-04-01T16:50:19;0.63;;;0.57;;
11970;SDS011;6045;42.682;23.294;2023-04-01T16:52:56;0.47;;;0.47;;
11970;SDS011;6045;42.682;23.294;2023-04-01T16:55:41;1.27;;;1.10;;
11970;SDS011;6045;42.682;23.294;2023-04-01T16:58:14;0.77;;;0.70;;
11970;SDS011;6045;42.682;23.294;2023-04-01T17:00:48;0.30;;;0.30;;
11970;SDS011;6045;42.682;23.294;2023-04-01T17:03:17;1.00;;;0.83;;
11970;SDS011;6045;42.682;23.294;2023-04-01T17:05:52;2.17;;;1.17;;
11970;SDS011;6045;42.682;23.294;2023-04-01T17:08:32;0.83;;;0.60;;
11970;SDS011;6045;42.682;23.294;2023-04-01T17:11:09;0.90;;;0.50;;
11970;SDS011;6045;42.682;23.294;2023-04-01T17:13:46;2.00;;;0.80;;